createdAt,value
2018-05-29T00:02:23.072Z,99.90
2018-05-29T00:04:50.194Z,99.90
2018-05-29T00:07:17.654Z,99.90
2018-05-29T00:09:45.146Z,99.90
2018-05-29T00:12:12.930Z,99.90
2018-05-29T00:14:40.383Z,99.90
2018-05-29T00:17:07.672Z,99.90
2018-05-29T00:19:34.893Z,99.90
2018-05-29T00:22:02.376Z,99.90
2018-05-29T00:24:29.682Z,99.90
2018-05-29T00:26:56.990Z,99.90
2018-05-29T00:29:24.798Z,99.90
2018-05-29T00:31:52.423Z,99.90
2018-05-29T00:34:19.543Z,99.90
2018-05-29T00:36:46.624Z,99.90
2018-05-29T00:39:13.770Z,99.90
2018-05-29T00:41:42.026Z,99.90
2018-05-29T00:44:09.625Z,99.90
2018-05-29T00:46:36.778Z,99.90
2018-05-29T00:49:04.016Z,99.90
2018-05-29T00:51:31.356Z,99.90
2018-05-29T00:53:58.577Z,99.90
2018-05-29T00:56:26.737Z,99.90
2018-05-29T00:58:54.266Z,99.90
2018-05-29T01:01:21.567Z,99.90
2018-05-29T01:03:49.266Z,99.90
2018-05-29T01:06:16.539Z,99.90
2018-05-29T01:08:44.077Z,99.90
2018-05-29T01:11:11.502Z,99.90
2018-05-29T01:13:39.200Z,99.90
2018-05-29T01:16:06.586Z,99.90
2018-05-29T01:18:34.051Z,99.90
2018-05-29T01:21:01.460Z,99.90
2018-05-29T01:23:29.839Z,99.90
2018-05-29T01:25:58.326Z,99.90
2018-05-29T01:28:26.590Z,99.90
2018-05-29T01:30:53.803Z,99.90
2018-05-29T01:33:21.213Z,99.90
2018-05-29T01:35:49.183Z,99.90
2018-05-29T01:38:16.430Z,99.90
2018-05-29T01:40:44.545Z,99.90
2018-05-29T01:43:11.965Z,99.90
2018-05-29T01:45:40.244Z,99.90
2018-05-29T01:48:07.742Z,99.90
2018-05-29T01:50:35.165Z,99.90
2018-05-29T01:53:02.447Z,99.90
2018-05-29T01:55:30.387Z,99.90
2018-05-29T01:57:58.384Z,99.90
2018-05-29T02:00:26.321Z,99.90
2018-05-29T02:02:54.286Z,99.90
2018-05-29T02:05:21.446Z,99.90
2018-05-29T02:07:48.662Z,99.90
2018-05-29T02:10:16.348Z,99.90
2018-05-29T02:12:44.364Z,99.90
2018-05-29T02:15:11.993Z,99.90
2018-05-29T02:17:39.353Z,99.90
2018-05-29T02:20:07.446Z,99.90
2018-05-29T02:25:08.597Z,99.90
2018-05-29T02:27:35.838Z,99.90
2018-05-29T02:30:03.436Z,99.90
2018-05-29T02:32:30.864Z,99.90
2018-05-29T02:34:58.283Z,99.90
2018-05-29T02:37:25.424Z,99.90
2018-05-29T02:39:52.649Z,99.90
2018-05-29T02:42:20.106Z,99.90
2018-05-29T02:44:47.480Z,99.90
2018-05-29T02:47:15.350Z,99.90
2018-05-29T02:49:42.468Z,99.90
2018-05-29T02:52:09.805Z,99.90
2018-05-29T02:54:37.018Z,99.90
2018-05-29T02:57:04.354Z,99.90
2018-05-29T02:59:31.668Z,99.90
2018-05-29T03:01:59.010Z,99.90
2018-05-29T03:04:27.448Z,99.90
2018-05-29T03:06:54.904Z,99.90
2018-05-29T03:09:22.426Z,99.90
2018-05-29T03:11:49.535Z,99.90
2018-05-29T03:14:16.794Z,99.90
2018-05-29T03:16:43.901Z,99.90
2018-05-29T03:19:11.982Z,99.90
2018-05-29T03:21:39.447Z,99.90
2018-05-29T03:24:06.600Z,99.90
2018-05-29T03:26:33.717Z,99.90
2018-05-29T03:29:00.935Z,99.90
2018-05-29T03:31:28.433Z,99.90
2018-05-29T03:33:55.767Z,99.90
2018-05-29T03:36:23.955Z,99.90
2018-05-29T03:38:51.225Z,99.90
2018-05-29T03:41:18.376Z,99.90
2018-05-29T03:43:45.472Z,99.90
2018-05-29T03:46:12.796Z,99.90
2018-05-29T03:48:40.253Z,99.90
2018-05-29T03:51:07.313Z,99.90
2018-05-29T03:53:35.514Z,99.90
2018-05-29T03:56:03.233Z,99.90
2018-05-29T03:58:31.103Z,99.90
2018-05-29T04:00:58.509Z,99.90
2018-05-29T04:03:26.498Z,99.90
2018-05-29T04:05:54.227Z,99.90
2018-05-29T04:08:21.472Z,99.90
2018-05-29T04:10:49.052Z,99.90
2018-05-29T04:13:16.216Z,99.90
2018-05-29T04:15:44.639Z,99.90
2018-05-29T04:18:12.163Z,99.90
2018-05-29T04:20:40.220Z,99.90
2018-05-29T04:23:08.209Z,99.90
2018-05-29T04:25:37.104Z,99.90
2018-05-29T04:28:18.015Z,99.90
2018-05-29T04:30:46.320Z,99.90
2018-05-29T04:33:13.811Z,99.90
2018-05-29T04:35:41.233Z,99.90
2018-05-29T04:38:08.532Z,99.90
2018-05-29T04:40:36.859Z,99.90
2018-05-29T04:43:04.876Z,99.90
2018-05-29T04:45:32.240Z,99.90
2018-05-29T04:47:59.685Z,99.90
2018-05-29T04:50:27.761Z,99.90
2018-05-29T04:52:56.124Z,99.90
2018-05-29T04:55:24.745Z,99.90
2018-05-29T04:57:52.355Z,99.90
2018-05-29T05:00:20.961Z,99.90
2018-05-29T05:02:58.188Z,98.50
2018-05-29T05:05:32.890Z,98.40
2018-05-29T05:08:09.561Z,98.40
2018-05-29T05:10:49.579Z,97.30
2018-05-29T05:13:29.717Z,96.00
2018-05-29T05:16:12.577Z,95.00
2018-05-29T05:18:57.211Z,95.20
2018-05-29T05:21:40.919Z,95.50
2018-05-29T05:27:11.188Z,96.40
2018-05-29T05:29:53.540Z,97.00
2018-05-29T05:32:35.763Z,98.30
2018-05-29T05:35:19.525Z,99.50
2018-05-29T05:37:58.683Z,99.90
2018-05-29T05:40:40.608Z,99.90
2018-05-29T05:43:21.828Z,99.90
2018-05-29T05:45:57.669Z,99.90
2018-05-29T05:48:36.850Z,99.90
2018-05-29T05:51:15.788Z,99.90
2018-05-29T05:53:59.127Z,99.90
2018-05-29T05:56:37.971Z,99.90
2018-05-29T05:59:19.625Z,99.90
2018-05-29T06:04:41.249Z,99.90
2018-05-29T06:07:21.748Z,99.90
2018-05-29T06:09:52.519Z,99.90
2018-05-29T06:12:34.958Z,99.90
2018-05-29T06:15:17.624Z,99.90
2018-05-29T06:17:50.938Z,99.90
2018-05-29T06:20:21.963Z,99.90
2018-05-29T06:23:02.094Z,99.90
2018-05-29T06:25:43.355Z,99.90
2018-05-29T06:28:14.030Z,99.90
2018-05-29T06:30:55.547Z,99.90
2018-05-29T06:33:24.245Z,99.90
2018-05-29T06:35:52.001Z,99.90
2018-05-29T06:38:19.202Z,99.90
2018-05-29T06:40:46.336Z,99.90
2018-05-29T06:43:13.871Z,99.90
2018-05-29T06:45:41.044Z,99.90
2018-05-29T06:48:08.263Z,99.90
2018-05-29T06:50:35.705Z,99.90
2018-05-29T06:53:03.237Z,99.90
2018-05-29T06:55:30.723Z,99.90
2018-05-29T06:57:58.188Z,99.90
2018-05-29T07:00:25.584Z,99.90
2018-05-29T07:02:52.799Z,99.90
2018-05-29T07:05:20.015Z,99.90
2018-05-29T07:07:47.425Z,99.90
2018-05-29T07:10:15.136Z,99.90
2018-05-29T07:12:43.281Z,99.90
2018-05-29T07:15:10.739Z,99.90
2018-05-29T07:17:38.017Z,99.90
2018-05-29T07:20:05.160Z,99.90
2018-05-29T07:22:33.707Z,99.90
2018-05-29T07:25:01.803Z,99.90
2018-05-29T07:27:29.122Z,99.90
2018-05-29T07:29:56.242Z,99.90
2018-05-29T07:32:24.241Z,99.90
2018-05-29T07:34:51.651Z,99.90
2018-05-29T07:37:18.872Z,99.90
2018-05-29T07:39:46.026Z,99.90
2018-05-29T07:42:13.027Z,99.90
2018-05-29T07:44:41.035Z,99.90
2018-05-29T07:47:08.403Z,99.90
2018-05-29T07:49:35.478Z,99.90
2018-05-29T07:52:02.851Z,99.90
2018-05-29T07:54:30.301Z,99.90
2018-05-29T07:56:57.605Z,99.90
2018-05-29T07:59:24.759Z,99.90
2018-05-29T08:01:52.442Z,99.90
2018-05-29T08:04:19.726Z,99.90
2018-05-29T08:06:47.134Z,99.90
2018-05-29T08:09:14.189Z,99.90
2018-05-29T08:11:41.216Z,99.30
2018-05-29T08:14:08.117Z,98.20
2018-05-29T08:16:35.065Z,95.70
2018-05-29T08:19:01.970Z,92.70
2018-05-29T08:21:28.945Z,91.00
2018-05-29T08:23:55.877Z,88.30
2018-05-29T08:26:22.836Z,90.40
2018-05-29T08:28:49.701Z,84.80
2018-05-29T08:31:16.565Z,84.40
2018-05-29T08:33:44.241Z,76.60
2018-05-29T08:36:11.236Z,76.60
2018-05-29T08:38:38.164Z,73.60
2018-05-29T08:41:05.070Z,75.40
2018-05-29T08:43:32.002Z,71.20
2018-05-29T08:45:59.704Z,70.90
2018-05-29T08:48:26.656Z,70.90
2018-05-29T08:50:53.677Z,71.10
2018-05-29T08:53:20.878Z,70.90
2018-05-29T08:55:48.599Z,70.90
2018-05-29T08:58:15.449Z,71.10
2018-05-29T09:00:42.386Z,72.40
2018-05-29T09:03:09.260Z,74.20
2018-05-29T09:05:36.205Z,74.60
2018-05-29T09:08:03.140Z,75.70
2018-05-29T09:10:30.093Z,77.00
2018-05-29T09:12:57.188Z,76.70
2018-05-29T09:15:24.183Z,78.40
2018-05-29T09:17:51.135Z,77.70
2018-05-29T09:20:18.022Z,79.50
2018-05-29T09:22:44.925Z,78.60
2018-05-29T09:25:11.865Z,77.90
2018-05-29T09:27:38.966Z,81.40
2018-05-29T09:30:05.940Z,78.20
2018-05-29T09:32:33.670Z,75.50
2018-05-29T09:35:00.745Z,76.10
2018-05-29T09:37:28.387Z,74.80
2018-05-29T09:39:55.328Z,74.60
2018-05-29T09:42:22.260Z,75.10
2018-05-29T09:44:49.154Z,76.40
2018-05-29T09:47:16.137Z,75.90
2018-05-29T09:49:42.993Z,75.00
2018-05-29T09:52:09.951Z,73.50
2018-05-29T09:54:36.953Z,72.20
2018-05-29T09:57:03.958Z,69.60
2018-05-29T09:59:31.608Z,71.30
2018-05-29T10:02:03.972Z,71.40
2018-05-29T10:04:31.102Z,73.10
2018-05-29T10:06:58.067Z,72.40
2018-05-29T10:09:25.120Z,71.90
2018-05-29T10:11:52.031Z,70.70
2018-05-29T10:14:19.063Z,70.60
2018-05-29T10:16:45.968Z,74.80
2018-05-29T10:19:13.530Z,72.30
2018-05-29T10:21:40.616Z,70.30
2018-05-29T10:24:07.478Z,71.20
2018-05-29T10:26:34.420Z,71.80
2018-05-29T10:29:01.315Z,72.90
2018-05-29T10:31:28.958Z,73.40
2018-05-29T10:33:55.922Z,73.20
2018-05-29T10:36:22.883Z,71.20
2018-05-29T10:38:50.704Z,69.90
2018-05-29T10:41:17.600Z,69.90
2018-05-29T10:43:45.387Z,72.40
2018-05-29T10:46:12.264Z,72.40
2018-05-29T10:48:39.193Z,71.10
2018-05-29T10:51:06.173Z,71.30
2018-05-29T10:53:33.060Z,70.90
2018-05-29T10:56:00.468Z,71.20
2018-05-29T10:58:27.381Z,69.80
2018-05-29T11:00:58.498Z,71.20
2018-05-29T11:03:25.764Z,71.80
2018-05-29T11:05:53.320Z,69.90
2018-05-29T11:08:20.280Z,72.20
2018-05-29T11:10:48.247Z,71.20
2018-05-29T11:13:15.189Z,70.60
2018-05-29T11:15:42.070Z,71.70
2018-05-29T11:18:10.708Z,73.80
2018-05-29T11:20:42.315Z,76.10
2018-05-29T11:23:18.399Z,76.10
2018-05-29T11:25:45.816Z,77.70
2018-05-29T11:28:18.532Z,79.70
2018-05-29T11:30:48.206Z,81.10
2018-05-29T11:33:15.199Z,82.30
2018-05-29T11:35:42.990Z,83.30
2018-05-29T11:38:12.684Z,84.70
2018-05-29T11:40:40.417Z,85.00
2018-05-29T11:43:07.345Z,85.70
2018-05-29T11:45:34.673Z,86.80
2018-05-29T11:48:05.311Z,86.40
2018-05-29T11:50:32.476Z,87.20
2018-05-29T11:53:04.315Z,87.70
2018-05-29T11:55:36.516Z,86.50
2018-05-29T11:58:08.000Z,86.10
2018-05-29T12:00:35.973Z,84.30
2018-05-29T12:03:03.785Z,85.60
2018-05-29T12:05:30.703Z,85.00
2018-05-29T12:07:57.767Z,84.60
2018-05-29T12:10:25.047Z,83.70
2018-05-29T12:12:52.130Z,84.60
2018-05-29T12:15:19.207Z,83.60
2018-05-29T12:17:48.330Z,85.50
2018-05-29T12:20:15.324Z,86.30
2018-05-29T12:22:42.320Z,85.20
2018-05-29T12:25:09.352Z,87.80
2018-05-29T12:27:36.467Z,88.00
2018-05-29T12:30:03.585Z,88.30
2018-05-29T12:32:30.594Z,89.60
2018-05-29T12:35:09.276Z,89.10
2018-05-29T12:37:37.143Z,89.90
2018-05-29T12:40:04.332Z,89.90
2018-05-29T12:42:31.386Z,90.50
2018-05-29T12:44:58.595Z,90.40
2018-05-29T12:47:25.540Z,91.30
2018-05-29T12:49:52.479Z,91.30
2018-05-29T12:52:19.703Z,91.40
2018-05-29T12:54:46.580Z,91.50
2018-05-29T12:57:15.272Z,91.40
2018-05-29T12:59:42.213Z,91.10
2018-05-29T13:02:11.719Z,90.70
2018-05-29T13:04:39.965Z,90.70
2018-05-29T13:07:06.913Z,90.50
2018-05-29T13:09:34.484Z,90.90
2018-05-29T13:12:01.438Z,90.80
2018-05-29T13:14:30.161Z,90.50
2018-05-29T13:16:57.033Z,89.10
2018-05-29T13:19:24.760Z,89.00
2018-05-29T13:21:55.915Z,90.30
2018-05-29T13:24:23.640Z,90.60
2018-05-29T13:26:50.690Z,91.20
2018-05-29T13:29:18.445Z,91.80
2018-05-29T13:31:45.557Z,91.20
2018-05-29T13:34:13.380Z,91.20
2018-05-29T13:36:40.682Z,91.20
2018-05-29T13:39:07.689Z,91.60
2018-05-29T13:41:34.716Z,91.60
2018-05-29T13:44:01.692Z,92.70
2018-05-29T13:46:28.773Z,92.50
2018-05-29T13:48:57.434Z,92.60
2018-05-29T13:51:26.042Z,93.10
2018-05-29T13:53:53.811Z,93.20
2018-05-29T13:56:22.615Z,93.30
2018-05-29T13:58:49.826Z,93.70
2018-05-29T14:01:19.387Z,93.80
2018-05-29T14:03:46.695Z,93.70
2018-05-29T14:06:14.418Z,93.70
2018-05-29T14:08:41.318Z,93.50
2018-05-29T14:11:09.115Z,93.20
2018-05-29T14:13:36.291Z,93.40
2018-05-29T14:16:03.205Z,92.80
2018-05-29T14:18:31.029Z,92.80
2018-05-29T14:21:00.273Z,92.70
2018-05-29T14:23:29.288Z,93.30
2018-05-29T14:25:59.650Z,93.40
2018-05-29T14:28:27.236Z,93.50
2018-05-29T14:30:54.208Z,93.10
2018-05-29T14:33:21.162Z,93.60
2018-05-29T14:35:50.848Z,93.30
2018-05-29T14:38:17.932Z,93.50
2018-05-29T14:40:46.960Z,93.90
2018-05-29T14:43:14.687Z,94.50
2018-05-29T14:45:41.648Z,94.50
2018-05-29T14:48:08.618Z,94.90
2018-05-29T14:50:37.727Z,94.80
2018-05-29T14:53:06.067Z,94.80
2018-05-29T14:55:33.092Z,94.60
2018-05-29T14:58:00.819Z,95.10
2018-05-29T15:00:30.332Z,95.50
2018-05-29T15:02:57.345Z,96.20
2018-05-29T15:05:25.755Z,95.90
2018-05-29T15:07:59.226Z,96.40
2018-05-29T15:10:26.412Z,96.60
2018-05-29T15:12:54.853Z,96.70
2018-05-29T15:15:22.041Z,97.20
2018-05-29T15:17:49.891Z,97.60
2018-05-29T15:20:18.598Z,97.60
2018-05-29T15:22:46.877Z,98.10
2018-05-29T15:25:20.513Z,98.00
2018-05-29T15:27:57.182Z,97.30
2018-05-29T15:30:24.557Z,97.50
2018-05-29T15:32:53.962Z,97.80
2018-05-29T15:35:23.477Z,98.00
2018-05-29T15:37:51.567Z,97.80
2018-05-29T15:40:19.480Z,97.80
2018-05-29T15:42:49.331Z,97.80
2018-05-29T15:45:18.915Z,98.20
2018-05-29T15:47:46.215Z,98.00
2018-05-29T15:50:15.478Z,98.30
2018-05-29T15:52:43.993Z,98.70
2018-05-29T15:55:11.833Z,98.40
2018-05-29T15:57:40.924Z,98.40
2018-05-29T16:00:14.374Z,98.70
2018-05-29T16:02:41.792Z,98.90
2018-05-29T16:05:09.050Z,99.40
2018-05-29T16:07:36.216Z,99.80
2018-05-29T16:10:03.595Z,99.90
2018-05-29T16:12:32.655Z,99.90
2018-05-29T16:15:00.003Z,99.90
2018-05-29T16:17:27.433Z,99.90
2018-05-29T16:19:54.445Z,99.90
2018-05-29T16:22:22.114Z,99.90
2018-05-29T16:24:49.734Z,99.90
2018-05-29T16:27:16.693Z,99.90
2018-05-29T16:29:43.580Z,99.90
2018-05-29T16:32:10.574Z,99.90
2018-05-29T16:34:38.676Z,99.90
2018-05-29T16:37:06.737Z,99.90
2018-05-29T16:39:33.627Z,99.90
2018-05-29T16:42:00.663Z,99.90
2018-05-29T16:44:28.704Z,99.90
2018-05-29T16:46:55.651Z,99.90
2018-05-29T16:49:23.576Z,99.90
2018-05-29T16:51:50.545Z,99.90
2018-05-29T16:54:17.492Z,99.90
2018-05-29T16:56:44.449Z,99.90
2018-05-29T16:59:11.413Z,99.90
2018-05-29T17:01:39.118Z,99.90
2018-05-29T17:04:06.094Z,99.90
2018-05-29T17:06:37.331Z,99.90
2018-05-29T17:09:05.510Z,99.90
2018-05-29T17:11:36.459Z,99.90
2018-05-29T17:14:04.010Z,99.90
2018-05-29T17:16:30.939Z,99.90
2018-05-29T17:19:02.366Z,99.90
2018-05-29T17:21:30.014Z,99.90
2018-05-29T17:23:56.996Z,99.90
2018-05-29T17:26:23.961Z,99.90
2018-05-29T17:28:50.933Z,99.90
2018-05-29T17:31:18.673Z,99.90
2018-05-29T17:33:45.580Z,99.90
2018-05-29T17:36:12.583Z,99.90
2018-05-29T17:38:40.242Z,99.90
2018-05-29T17:41:07.298Z,99.90
2018-05-29T17:43:34.971Z,99.90
2018-05-29T17:46:03.660Z,99.90
2018-05-29T17:48:31.472Z,99.90
2018-05-29T17:50:59.073Z,99.90
2018-05-29T17:53:27.560Z,99.90
2018-05-29T17:55:56.153Z,99.90
2018-05-29T17:58:23.182Z,99.90
2018-05-29T18:00:50.395Z,99.90
2018-05-29T18:03:17.471Z,99.90
2018-05-29T18:05:44.427Z,99.90
2018-05-29T18:08:11.581Z,99.90
2018-05-29T18:10:38.567Z,99.90
2018-05-29T18:13:05.858Z,99.90
2018-05-29T18:15:32.885Z,99.90
2018-05-29T18:17:59.813Z,99.90
2018-05-29T18:20:26.821Z,99.90
2018-05-29T18:22:53.961Z,99.90
2018-05-29T18:25:21.012Z,99.90
2018-05-29T18:27:48.086Z,99.90
2018-05-29T18:30:14.996Z,99.90
2018-05-29T18:32:42.018Z,99.90
2018-05-29T18:35:09.047Z,99.90
2018-05-29T18:37:35.953Z,99.90
2018-05-29T18:40:03.032Z,99.90
2018-05-29T18:42:29.932Z,99.90
2018-05-29T18:44:56.882Z,99.90
2018-05-29T18:47:23.822Z,99.90
2018-05-29T18:49:50.843Z,99.90
2018-05-29T18:52:18.001Z,99.90
2018-05-29T18:54:45.016Z,99.90
2018-05-29T18:57:11.889Z,99.90
2018-05-29T18:59:38.836Z,99.90
2018-05-29T19:02:05.796Z,99.90
2018-05-29T19:04:33.868Z,99.90
2018-05-29T19:07:01.237Z,99.90
2018-05-29T19:09:28.182Z,99.90
2018-05-29T19:11:56.825Z,99.90
2018-05-29T19:14:23.805Z,99.90
2018-05-29T19:16:50.759Z,99.90
2018-05-29T19:19:18.481Z,99.90
2018-05-29T19:21:45.595Z,99.90
2018-05-29T19:24:12.736Z,99.90
2018-05-29T19:26:40.717Z,99.90
2018-05-29T19:29:08.487Z,99.90
2018-05-29T19:31:36.240Z,99.90
2018-05-29T19:34:03.141Z,99.90
2018-05-29T19:36:30.093Z,99.90
2018-05-29T19:38:58.349Z,99.90
2018-05-29T19:41:25.546Z,99.90
2018-05-29T19:43:52.534Z,99.90
2018-05-29T19:46:20.197Z,99.90
2018-05-29T19:48:47.195Z,99.90
2018-05-29T19:51:14.715Z,99.90
2018-05-29T19:53:41.597Z,99.90
2018-05-29T19:56:08.649Z,99.90
2018-05-29T19:58:35.865Z,99.90
2018-05-29T20:01:02.796Z,99.90
2018-05-29T20:03:30.559Z,99.90
2018-05-29T20:05:58.223Z,99.90
2018-05-29T20:08:25.245Z,99.90
2018-05-29T20:10:52.146Z,99.90
2018-05-29T20:13:19.116Z,99.90
2018-05-29T20:15:46.040Z,99.90
2018-05-29T20:18:13.022Z,99.90
2018-05-29T20:20:40.123Z,99.90
2018-05-29T20:23:07.093Z,99.90
2018-05-29T20:25:34.017Z,99.90
2018-05-29T20:28:00.990Z,99.90
2018-05-29T20:30:27.890Z,99.90
2018-05-29T20:32:54.777Z,99.90
2018-05-29T20:35:21.746Z,99.90
2018-05-29T20:37:48.661Z,99.90
2018-05-29T20:40:15.711Z,99.90
2018-05-29T20:42:42.648Z,99.90
2018-05-29T20:45:09.609Z,99.90
2018-05-29T20:47:37.705Z,99.90
2018-05-29T20:50:05.040Z,99.90
2018-05-29T20:52:31.893Z,99.90
2018-05-29T20:54:58.828Z,99.90
2018-05-29T20:57:25.750Z,99.90
2018-05-29T20:59:52.686Z,99.90
2018-05-29T21:02:20.297Z,99.90
2018-05-29T21:04:47.265Z,99.90
2018-05-29T21:07:14.117Z,99.90
2018-05-29T21:09:40.984Z,99.90
2018-05-29T21:12:08.661Z,99.90
2018-05-29T21:14:35.592Z,99.90
2018-05-29T21:17:03.265Z,99.90
2018-05-29T21:19:30.862Z,99.90
2018-05-29T21:21:57.795Z,99.90
2018-05-29T21:24:24.718Z,99.90
2018-05-29T21:26:51.704Z,99.90
2018-05-29T21:29:18.600Z,99.90
2018-05-29T21:31:46.212Z,99.90
2018-05-29T21:34:13.171Z,99.90
2018-05-29T21:36:40.042Z,99.90
2018-05-29T21:39:06.974Z,99.90
2018-05-29T21:41:33.860Z,99.90
2018-05-29T21:44:00.829Z,99.90
2018-05-29T21:46:27.791Z,99.90
2018-05-29T21:48:54.719Z,99.90
2018-05-29T21:51:21.686Z,99.90
2018-05-29T21:53:49.604Z,99.90
2018-05-29T21:56:17.296Z,99.90
2018-05-29T21:58:44.241Z,99.90
2018-05-29T22:01:11.107Z,99.90
2018-05-29T22:03:38.020Z,99.90
2018-05-29T22:06:04.957Z,99.90
2018-05-29T22:08:32.138Z,99.90
2018-05-29T22:10:59.139Z,99.90
2018-05-29T22:13:26.762Z,99.90
2018-05-29T22:15:53.716Z,99.90
2018-05-29T22:18:20.601Z,99.90
2018-05-29T22:20:47.597Z,99.90
2018-05-29T22:23:14.492Z,99.90
2018-05-29T22:25:41.446Z,99.90
2018-05-29T22:28:08.437Z,99.90
2018-05-29T22:30:35.338Z,99.90
2018-05-29T22:33:02.235Z,99.90
2018-05-29T22:35:29.172Z,99.90
2018-05-29T22:37:56.056Z,99.90
2018-05-29T22:40:22.985Z,99.90
2018-05-29T22:42:49.921Z,99.90
2018-05-29T22:45:16.870Z,99.90
2018-05-29T22:47:43.753Z,99.90
2018-05-29T22:50:10.738Z,99.90
2018-05-29T22:52:37.608Z,99.90
2018-05-29T22:55:04.509Z,99.90
2018-05-29T22:57:31.441Z,99.90
2018-05-29T22:59:58.330Z,99.90
2018-05-29T23:02:25.292Z,99.90
2018-05-29T23:04:52.166Z,99.90
2018-05-29T23:07:19.901Z,99.90
2018-05-29T23:09:46.775Z,99.90
2018-05-29T23:12:13.695Z,99.90
2018-05-29T23:14:40.573Z,99.90
2018-05-29T23:17:07.510Z,99.90
2018-05-29T23:19:35.116Z,99.90
2018-05-29T23:22:02.040Z,99.90
2018-05-29T23:24:28.928Z,99.90
2018-05-29T23:26:55.886Z,99.90
2018-05-29T23:29:23.604Z,99.90
2018-05-29T23:31:50.466Z,99.90
2018-05-29T23:34:17.521Z,99.90
2018-05-29T23:36:44.406Z,99.90
2018-05-29T23:39:12.105Z,99.90
2018-05-29T23:41:38.973Z,99.90
2018-05-29T23:44:05.916Z,99.90
2018-05-29T23:46:32.935Z,99.90
2018-05-29T23:48:59.837Z,99.90
2018-05-29T23:51:26.749Z,99.90
2018-05-29T23:53:53.620Z,99.90
2018-05-29T23:56:20.552Z,99.90
2018-05-29T23:58:47.407Z,99.90
